createdAt,value
2018-11-06T00:03:47.474Z,22.00
2018-11-06T00:08:51.398Z,27.53
2018-11-06T00:13:54.923Z,21.20
2018-11-06T00:18:58.094Z,21.20
2018-11-06T00:24:01.253Z,21.60
2018-11-06T00:29:04.414Z,21.83
2018-11-06T00:34:07.625Z,20.47
2018-11-06T00:39:11.007Z,23.50
2018-11-06T00:44:14.170Z,21.23
2018-11-06T00:49:17.346Z,18.73
2018-11-06T00:54:20.557Z,20.80
2018-11-06T00:59:24.887Z,22.43
2018-11-06T01:04:28.036Z,21.83
2018-11-06T01:09:31.215Z,23.23
2018-11-06T01:14:34.447Z,21.03
2018-11-06T01:19:38.974Z,20.23
2018-11-06T01:24:42.214Z,18.07
2018-11-06T01:29:45.361Z,21.17
2018-11-06T01:34:48.530Z,17.67
2018-11-06T01:39:52.042Z,18.73
2018-11-06T01:44:55.236Z,18.07
2018-11-06T01:49:58.367Z,17.27
2018-11-06T01:55:02.351Z,19.37
2018-11-06T02:00:07.586Z,19.37
2018-11-06T02:05:13.131Z,21.13
2018-11-06T02:10:16.687Z,18.10
2018-11-06T02:15:19.845Z,19.10
2018-11-06T02:20:23.003Z,19.00
2018-11-06T02:25:26.170Z,18.77
2018-11-06T02:30:30.251Z,22.03
2018-11-06T02:35:33.419Z,22.43
2018-11-06T02:40:36.664Z,19.87
2018-11-06T02:45:39.848Z,19.30
2018-11-06T02:50:44.281Z,18.80
2018-11-06T02:55:53.509Z,19.37
2018-11-06T03:00:58.438Z,19.57
2018-11-06T03:06:08.579Z,17.17
2018-11-06T03:11:18.358Z,19.57
2018-11-06T03:16:45.924Z,15.90
2018-11-06T03:21:49.699Z,17.93
2018-11-06T03:26:54.014Z,16.23
2018-11-06T03:32:05.738Z,21.50
2018-11-06T03:37:09.050Z,18.47
2018-11-06T03:42:13.374Z,17.77
2018-11-06T03:47:16.768Z,17.37
2018-11-06T03:52:20.326Z,18.27
2018-11-06T03:57:28.874Z,20.30
2018-11-06T04:02:32.552Z,22.10
2018-11-06T04:07:35.858Z,17.67
2018-11-06T04:12:39.777Z,19.77
2018-11-06T04:17:44.391Z,18.47
2018-11-06T04:22:47.548Z,19.77
2018-11-06T04:27:50.780Z,20.00
2018-11-06T04:32:53.950Z,17.57
2018-11-06T04:37:57.119Z,17.87
2018-11-06T04:43:00.354Z,18.07
2018-11-06T04:48:03.542Z,19.37
2018-11-06T04:53:06.738Z,17.80
2018-11-06T04:58:09.956Z,17.37
2018-11-06T05:03:13.157Z,18.23
2018-11-06T05:08:16.349Z,16.77
2018-11-06T05:13:19.545Z,18.27
2018-11-06T05:18:23.370Z,20.77
2018-11-06T05:23:26.575Z,22.13
2018-11-06T05:28:30.190Z,18.30
2018-11-06T05:33:33.402Z,17.57
2018-11-06T05:38:36.635Z,19.43
2018-11-06T05:43:40.297Z,18.10
2018-11-06T05:48:43.533Z,18.47
2018-11-06T05:53:47.350Z,19.40
2018-11-06T05:58:50.579Z,21.23
2018-11-06T06:03:53.781Z,20.60
2018-11-06T06:08:56.982Z,20.83
2018-11-06T06:14:00.177Z,21.30
2018-11-06T06:19:03.434Z,23.77
2018-11-06T06:24:06.657Z,24.77
2018-11-06T06:29:09.871Z,24.60
2018-11-06T06:34:13.102Z,22.67
2018-11-06T06:39:16.317Z,19.20
2018-11-06T06:44:19.561Z,23.07
2018-11-06T06:49:22.750Z,22.10
2018-11-06T06:54:26.238Z,26.47
2018-11-06T06:59:31.586Z,25.60
2018-11-06T07:04:36.015Z,25.73
2018-11-06T07:09:39.278Z,28.57
2018-11-06T07:14:42.497Z,23.73
2018-11-06T07:19:47.694Z,26.73
2018-11-06T07:24:50.883Z,28.07
2018-11-06T07:29:54.066Z,31.87
2018-11-06T07:34:57.412Z,28.47
2018-11-06T07:40:00.698Z,32.53
2018-11-06T07:45:03.970Z,27.03
2018-11-06T07:50:08.089Z,35.10
2018-11-06T07:55:12.904Z,29.40
2018-11-06T08:00:18.567Z,28.87
2018-11-06T08:05:21.933Z,30.27
2018-11-06T08:10:25.106Z,33.07
2018-11-06T08:15:28.296Z,24.00
2018-11-06T08:20:31.581Z,30.07
2018-11-06T08:25:34.763Z,28.33
2018-11-06T08:30:38.981Z,25.57
2018-11-06T08:35:42.234Z,27.00
2018-11-06T08:40:45.447Z,25.47
2018-11-06T08:45:48.650Z,21.80
2018-11-06T08:50:51.919Z,21.97
2018-11-06T08:55:55.222Z,21.27
2018-11-06T09:00:58.487Z,20.27
2018-11-06T09:06:01.723Z,24.27
2018-11-06T09:11:05.136Z,23.73
2018-11-06T09:16:08.422Z,25.50
2018-11-06T09:21:13.900Z,23.10
2018-11-06T09:26:17.188Z,23.23
2018-11-06T09:31:21.055Z,31.70
2018-11-06T09:36:24.287Z,25.80
2018-11-06T09:41:27.699Z,26.03
2018-11-06T09:46:30.827Z,24.43
2018-11-06T09:51:34.222Z,21.93
2018-11-06T09:56:37.454Z,23.63
2018-11-06T10:01:40.686Z,23.37
2018-11-06T10:06:44.458Z,24.23
2018-11-06T10:11:47.499Z,27.97
2018-11-06T10:16:50.919Z,25.60
2018-11-06T10:21:54.223Z,24.97
2018-11-06T10:26:57.476Z,26.60
2018-11-06T10:32:00.743Z,25.13
2018-11-06T10:37:04.035Z,25.97
2018-11-06T10:42:07.263Z,23.87
2018-11-06T10:47:10.492Z,22.83
2018-11-06T10:52:13.674Z,21.13
2018-11-06T10:57:16.918Z,21.13
2018-11-06T11:02:23.390Z,20.23
2018-11-06T11:07:26.633Z,20.97
2018-11-06T11:12:30.297Z,24.27
2018-11-06T11:17:33.690Z,22.27
2018-11-06T11:22:36.919Z,21.07
2018-11-06T11:27:40.811Z,22.07
2018-11-06T11:32:45.666Z,17.73
2018-11-06T11:37:48.996Z,23.37
2018-11-06T11:42:52.152Z,19.77
2018-11-06T11:47:55.350Z,16.73
2018-11-06T11:52:58.753Z,17.93
2018-11-06T11:58:02.010Z,15.07
2018-11-06T12:03:05.922Z,19.17
2018-11-06T12:08:09.226Z,18.90
2018-11-06T12:13:13.798Z,18.03
2018-11-06T12:18:17.792Z,16.27
2018-11-06T12:23:21.064Z,21.63
2018-11-06T12:28:24.378Z,18.13
2018-11-06T12:33:27.736Z,15.63
2018-11-06T12:38:31.066Z,16.17
2018-11-06T12:43:34.365Z,12.97
2018-11-06T12:48:37.882Z,18.27
2018-11-06T12:53:41.094Z,12.40
2018-11-06T12:58:50.152Z,12.73
2018-11-06T13:03:53.375Z,14.47
2018-11-06T13:08:58.476Z,12.30
2018-11-06T13:14:02.596Z,13.70
2018-11-06T13:19:07.005Z,12.60
2018-11-06T13:24:10.793Z,10.13
2018-11-06T13:29:19.643Z,11.50
2018-11-06T13:34:23.330Z,11.50
2018-11-06T13:39:26.570Z,13.53
2018-11-06T13:44:30.378Z,11.70
2018-11-06T13:49:33.197Z,11.27
2018-11-06T13:54:37.958Z,12.50
2018-11-06T13:59:41.240Z,12.47
2018-11-06T14:04:51.643Z,16.93
2018-11-06T14:09:57.838Z,10.53
2018-11-06T14:15:02.126Z,10.90
2018-11-06T14:20:11.107Z,8.90
2018-11-06T14:25:15.478Z,6.87
2018-11-06T14:30:20.130Z,7.03
2018-11-06T14:35:23.576Z,8.37
2018-11-06T14:40:26.806Z,8.90
2018-11-06T14:45:30.115Z,9.30
2018-11-06T14:50:33.344Z,7.43
2018-11-06T14:55:45.965Z,6.63
2018-11-06T15:10:29.165Z,9.13
2018-11-06T15:15:35.637Z,9.40
2018-11-06T15:20:39.922Z,8.40
2018-11-06T15:25:43.528Z,9.20
2018-11-06T15:30:49.072Z,8.10
2018-11-06T15:35:52.784Z,12.27
2018-11-06T15:40:57.423Z,8.43
2018-11-06T15:46:00.643Z,10.80
2018-11-06T15:51:06.446Z,13.37
2018-11-06T15:56:10.213Z,9.17
2018-11-06T16:01:13.459Z,11.23
2018-11-06T16:06:16.703Z,9.10
2018-11-06T16:11:23.196Z,9.47
2018-11-06T16:16:26.427Z,11.23
2018-11-06T16:21:34.314Z,13.97
2018-11-06T16:26:49.654Z,9.23
2018-11-06T16:31:52.892Z,11.33
2018-11-06T16:36:56.289Z,12.97
2018-11-06T16:42:34.209Z,11.57
2018-11-06T16:48:01.610Z,12.40
2018-11-06T16:53:07.082Z,14.80
2018-11-06T16:58:10.356Z,11.37
2018-11-06T17:03:18.050Z,10.77
2018-11-06T17:08:22.337Z,17.20
2018-11-06T17:13:30.321Z,12.07
2018-11-06T17:19:11.919Z,12.80
2018-11-06T17:24:18.624Z,12.47
2018-11-06T17:29:30.160Z,17.60
2018-11-06T17:34:40.333Z,14.77
2018-11-06T17:39:54.727Z,11.77
2018-11-06T17:45:01.755Z,10.60
2018-11-06T17:50:07.440Z,8.53
2018-11-06T17:55:45.251Z,10.47
2018-11-06T18:00:56.602Z,9.73
2018-11-06T18:06:05.466Z,10.97
2018-11-06T18:11:09.234Z,8.70
2018-11-06T18:16:31.247Z,8.87
2018-11-06T18:21:49.720Z,16.17
2018-11-06T18:26:55.378Z,15.77
2018-11-06T18:31:59.524Z,10.33
2018-11-06T18:37:03.391Z,10.10
2018-11-06T18:42:07.295Z,13.27
2018-11-06T18:47:11.284Z,9.97
2018-11-06T18:52:14.853Z,13.67
2018-11-06T18:57:19.247Z,9.23
2018-11-06T19:02:23.089Z,16.17
2018-11-06T19:07:26.519Z,5.27
2018-11-06T19:12:30.222Z,6.83
2018-11-06T19:17:34.974Z,5.20
2018-11-06T19:22:39.202Z,4.60
2018-11-06T19:27:42.546Z,5.17
2018-11-06T19:32:51.026Z,4.80
2018-11-06T19:37:54.633Z,5.57
2018-11-06T19:42:58.833Z,5.87
2018-11-06T19:53:43.786Z,5.33
2018-11-06T19:58:46.959Z,4.90
2018-11-06T20:03:53.307Z,6.67
2018-11-06T20:08:57.388Z,8.17
2018-11-06T20:14:00.884Z,7.10
2018-11-06T20:19:07.866Z,6.40
2018-11-06T20:24:14.188Z,5.83
2018-11-06T20:29:17.426Z,6.27
2018-11-06T20:34:21.908Z,7.30
2018-11-06T20:39:25.176Z,5.93
2018-11-06T20:44:28.362Z,8.30
2018-11-06T20:55:10.815Z,7.40
2018-11-06T21:00:19.848Z,7.50
2018-11-06T21:05:23.070Z,9.50
2018-11-06T21:10:27.963Z,8.50
2018-11-06T21:15:31.191Z,7.40
2018-11-06T21:20:34.428Z,8.83
2018-11-06T21:25:38.266Z,8.80
2018-11-06T21:30:41.462Z,9.17
2018-11-06T21:35:44.734Z,6.87
2018-11-06T21:40:48.015Z,7.27
2018-11-06T21:45:51.239Z,8.43
2018-11-06T21:50:54.463Z,9.43
2018-11-06T21:55:57.667Z,8.27
2018-11-06T22:01:00.872Z,8.60
2018-11-06T22:06:04.299Z,8.33
2018-11-06T22:11:08.102Z,8.90
2018-11-06T22:16:11.351Z,10.73
2018-11-06T22:21:14.794Z,8.13
2018-11-06T22:26:18.452Z,8.80
2018-11-06T22:31:21.739Z,10.63
2018-11-06T22:36:24.911Z,8.80
2018-11-06T22:41:28.087Z,8.43
2018-11-06T22:46:32.005Z,9.23
2018-11-06T22:51:35.206Z,10.80
2018-11-06T22:56:38.361Z,9.33
2018-11-06T23:01:41.558Z,9.23
2018-11-06T23:06:44.894Z,10.07
2018-11-06T23:11:47.999Z,10.40
2018-11-06T23:16:51.214Z,9.23
2018-11-06T23:21:54.482Z,9.63
2018-11-06T23:26:57.661Z,8.10
2018-11-06T23:32:01.098Z,7.47
2018-11-06T23:37:04.314Z,9.07
2018-11-06T23:42:07.463Z,9.97
2018-11-06T23:47:10.634Z,10.30
2018-11-06T23:52:14.560Z,8.23
2018-11-06T23:57:17.794Z,12.07
